Time;durP1;ratioP1;P1;durP2;ratioP2;P2;SDS_P1;SDS_P2;PMS_P1;PMS_P2;Temp;Humidity;BMP_temperature;BMP_pressure;BME280_temperature;BME280_humidity;BME280_pressure;Samples;Min_cycle;Max_cycle;Signal;HPM_P1;HPM_P2
2021/04/18 01:51:11;;;;;;;4.20;3.90;;;6.50;58.30;;;;;;5005964;23;20214;-91
2021/04/18 01:53:37;;;;;;;7.67;4.80;;;;;;;;;;4964869;29;20163;-91
2021/04/18 02:27:11;;;;;;;5.68;5.18;;;7.00;58.40;;;;;;5047233;23;20475;-91
2021/04/18 02:29:37;;;;;;;6.63;4.60;;;7.40;60.60;;;;;;4964326;28;20179;-91
2021/04/18 03:44:19;;;;;;;6.40;5.20;;;6.90;67.20;;;;;;5390203;23;21092;-88
2021/04/18 03:46:46;;;;;;;8.27;6.45;;;7.40;58.90;;;;;;4960178;28;20182;-90
2021/04/18 03:49:12;;;;;;;5.75;5.25;;;9.60;67.00;;;;;;4963018;28;20163;-91
2021/04/18 03:51:46;;;;;;;8.57;6.00;;;7.00;61.80;;;;;;5079517;23;20291;-90
2021/04/18 04:35:39;;;;;;;8.25;5.75;;;7.20;59.00;;;;;;5121926;23;20266;-90
2021/04/18 04:48:27;;;;;;;7.30;6.70;;;;;;;;;;4981348;23;20237;-89
2021/04/18 04:50:53;;;;;;;6.47;6.07;;;8.70;59.30;;;;;;4965437;28;20198;-90
2021/04/18 04:53:19;;;;;;;6.47;5.83;;;;;;;;;;4982141;28;20492;-91
2021/04/18 04:58:43;;;;;;;6.15;5.85;;;7.30;59.10;;;;;;5162791;23;20203;-90
2021/04/18 05:47:50;;;;;;;6.00;5.50;;;;;;;;;;3643940;23;20221;-90
2021/04/18 05:55:31;;;;;;;6.60;5.90;;;;;;;;;;5906608;23;20862;-91
2021/04/18 05:57:57;;;;;;;6.40;5.80;;;;;;;;;;4943388;29;20463;-91
2021/04/18 06:00:25;;;;;;;5.80;5.40;;;;;;;;;;4943879;29;20423;-90
2021/04/18 06:02:52;;;;;;;10.52;7.03;;;;;;;;;;4943796;29;20156;-91
2021/04/18 06:05:17;;;;;;;7.67;6.00;;;;;;;;;;4960404;29;20183;-90
2021/04/18 06:07:44;;;;;;;6.30;5.77;;;;;;;;;;4941656;29;20411;-91
2021/04/18 06:10:10;;;;;;;10.73;6.30;;;;;;;;;;4957994;29;20416;-91
2021/04/18 06:12:36;;;;;;;8.50;6.00;;;;;;;;;;4959881;29;20422;-90
2021/04/18 06:15:02;;;;;;;7.32;6.20;;;;;;;;;;4927358;29;20462;-91
2021/04/18 06:17:28;;;;;;;8.00;7.30;;;;;;;;;;4960255;28;20183;-91
2021/04/18 06:19:57;;;;;;;7.27;6.63;;;;;;;;;;4942699;29;20407;-90
2021/04/18 06:22:23;;;;;;;8.43;7.23;;;;;;;;;;4938319;29;20416;-91
2021/04/18 06:24:52;;;;;;;10.52;6.65;;;;;;;;;;4941881;29;20415;-90
2021/04/18 06:27:18;;;;;;;7.80;7.00;;;;;;;;;;4926677;29;20187;-90
2021/04/18 06:29:44;;;;;;;6.83;6.43;;;;;;;;;;4942710;29;20403;-90
2021/04/18 06:32:13;;;;;;;6.95;6.45;;;;;;;;;;4943836;29;20415;-88
2021/04/18 06:34:39;;;;;;;7.28;6.30;;;;;;;;;;4943747;29;20210;-90
2021/04/18 06:37:05;;;;;;;9.70;6.78;;;;;;;;;;4959745;29;20186;-89
2021/04/18 06:39:31;;;;;;;7.43;6.63;;;;;;;;;;4942626;29;20171;-89
2021/04/18 06:42:00;;;;;;;7.60;6.90;;;;;;;;;;4942542;29;20430;-90
2021/04/18 06:44:31;;;;;;;6.87;6.40;;;;;;;;;;4925668;29;20194;-89
2021/04/18 06:46:59;;;;;;;7.30;6.70;;;;;;;;;;4959793;28;20422;-90
2021/04/18 06:49:28;;;;;;;8.73;7.93;;;;;;;;;;4942742;28;20424;-90
2021/04/18 06:51:55;;;;;;;7.73;6.93;;;;;;;;;;4959772;28;20410;-90
2021/04/18 06:54:21;;;;;;;8.43;7.43;;;;;;;;;;4942760;29;20450;-89
2021/04/18 06:56:48;;;;;;;8.77;7.77;;;;;;;;;;4941942;29;20485;-89
2021/04/18 06:59:14;;;;;;;7.72;7.13;;;;;;;;;;4942053;29;20411;-90
2021/04/18 07:01:40;;;;;;;8.40;7.70;;;;;;;;;;4941000;29;20171;-89
2021/04/18 07:04:20;;;;;;;8.20;7.60;;;;;;;;;;4937837;29;20450;-87
2021/04/18 07:06:50;;;;;;;8.33;7.50;;;;;;;;;;4957326;29;20437;-89
2021/04/18 07:09:18;;;;;;;9.60;8.70;;;;;;;;;;4948834;29;20416;-92
2021/04/18 07:11:45;;;;;;;11.30;8.60;;;;;;;;;;4937223;29;20458;-89
2021/04/18 07:14:27;;;;;;;9.33;8.23;;;;;;;;;;4938867;29;20483;-91
2021/04/18 07:16:53;;;;;;;8.87;7.80;;;;;;;;;;4938087;29;20439;-91
2021/04/18 07:19:20;;;;;;;9.90;8.97;;;;;;;;;;4954080;29;20411;-90
2021/04/18 07:21:48;;;;;;;9.40;8.53;;;;;;;;;;4936353;29;20451;-91
2021/04/18 07:24:14;;;;;;;8.23;7.53;;;;;;;;;;4941261;29;20505;-89
2021/04/18 07:26:40;;;;;;;8.60;7.70;;;;;;;;;;4272640;28;10000602;-90
2021/04/18 07:29:19;;;;;;;10.30;8.60;;;;;;;;;;4952860;29;20186;-92
2021/04/18 07:31:47;;;;;;;8.77;8.00;;;;;;;;;;4948482;29;20423;-92
2021/04/18 07:34:15;;;;;;;12.20;7.80;;;;;;;;;;4919746;29;20873;-91
2021/04/18 07:36:42;;;;;;;9.63;8.73;;;;;;;;;;4953092;29;20494;-91
2021/04/18 07:39:10;;;;;;;10.27;9.27;;;;;;;;;;4948275;29;20997;-91
2021/04/18 07:41:41;;;;;;;9.73;8.63;;;;;;;;;;4951267;29;20458;-91
2021/04/18 07:44:08;;;;;;;9.37;8.47;;;;;;;;;;4952781;29;20438;-89
2021/04/18 07:46:34;;;;;;;13.37;9.60;;;;;;;;;;4947066;29;20419;-91
2021/04/18 07:49:01;;;;;;;10.70;9.67;;;;;;;;;;4950147;29;20432;-90
2021/04/18 07:51:29;;;;;;;9.10;8.20;;;;;;;;;;4949572;29;20515;-90
2021/04/18 07:53:56;;;;;;;8.43;7.83;;;13.70;46.70;;;;;;4947577;29;20419;-91
2021/04/18 07:56:21;;;;;;;9.40;8.67;;;14.30;46.90;;;;;;4909002;29;20511;-91
2021/04/18 07:58:47;;;;;;;10.83;9.37;;;15.80;44.10;;;;;;4938342;29;20427;-91
2021/04/18 08:01:13;;;;;;;10.60;9.57;;;16.70;42.20;;;;;;4907720;29;20191;-92
2021/04/18 08:03:44;;;;;;;12.17;11.00;;;18.60;43.50;;;;;;4924837;29;20288;-93
2021/04/18 08:06:11;;;;;;;10.00;9.13;;;18.20;41.00;;;;;;4938592;29;20473;-93
2021/04/18 08:08:45;;;;;;;14.73;10.67;;;17.90;40.90;;;;;;4941565;29;20426;-89
2021/04/18 08:11:13;;;;;;;13.30;11.27;;;16.00;40.30;;;;;;4942455;29;20435;-93
2021/04/18 08:13:41;;;;;;;11.77;10.50;;;14.90;41.80;;;;;;4946320;29;20494;-92
2021/04/18 08:16:12;;;;;;;12.33;11.07;;;14.50;43.20;;;;;;4957955;29;20989;-90
2021/04/18 08:18:45;;;;;;;16.40;13.03;;;15.10;45.80;;;;;;4957757;28;20409;-90
2021/04/18 08:26:17;;;;;;;11.07;9.93;;;13.60;43.80;;;;;;5139768;23;20503;-88
2021/04/18 08:28:53;;;;;;;10.40;9.43;;;15.40;46.20;;;;;;5445505;23;20485;-91
2021/04/18 08:31:25;;;;;;;11.60;10.37;;;13.50;46.30;;;;;;4975903;28;20422;-92
2021/04/18 08:33:55;;;;;;;11.73;10.63;;;13.30;45.50;;;;;;4959575;29;20461;-90
2021/04/18 08:36:23;;;;;;;10.23;9.30;;;14.20;46.60;;;;;;4979891;28;20500;-93
2021/04/18 08:39:08;;;;;;;13.13;9.97;;;14.60;47.10;;;;;;4960841;29;20476;-93
2021/04/18 08:41:52;;;;;;;10.87;9.73;;;14.40;48.50;;;;;;4960909;28;20433;-91
2021/04/18 08:44:32;;;;;;;10.50;9.40;;;12.50;45.90;;;;;;4961586;29;20426;-91
2021/04/18 08:47:04;;;;;;;10.90;9.90;;;13.80;47.90;;;;;;4957860;29;20522;-91
2021/04/18 08:49:37;;;;;;;10.47;9.57;;;12.80;47.80;;;;;;4977659;28;20459;-89
2021/04/18 08:52:08;;;;;;;10.93;9.23;;;11.90;45.80;;;;;;4974151;28;20423;-89
2021/04/18 08:54:37;;;;;;;11.63;10.10;;;14.20;47.90;;;;;;4950685;29;20723;-91
2021/04/18 08:57:07;;;;;;;9.90;9.00;;;12.80;45.60;;;;;;4953748;29;20414;-91
2021/04/18 08:59:33;;;;;;;26.57;12.07;;;13.40;45.70;;;;;;4950663;29;20457;-90
2021/04/18 09:02:10;;;;;;;11.47;10.27;;;13.70;45.40;;;;;;5161427;23;20518;-90
2021/04/18 09:04:44;;;;;;;11.97;10.77;;;15.10;44.60;;;;;;4947779;29;20468;-90
2021/04/18 09:07:20;;;;;;;12.90;10.93;;;14.00;43.70;;;;;;4932465;29;20426;-89
2021/04/18 09:09:47;;;;;;;66.00;37.53;;;14.50;44.60;;;;;;4917353;29;20427;-91
2021/04/18 09:12:17;;;;;;;11.63;10.47;;;14.40;45.00;;;;;;4916538;29;20420;-89
2021/04/18 09:14:45;;;;;;;15.03;10.33;;;13.60;45.40;;;;;;4913556;29;20515;-91
2021/04/18 09:17:26;;;;;;;13.17;10.07;;;14.50;46.30;;;;;;4912161;29;20719;-91
2021/04/18 09:19:56;;;;;;;10.97;9.80;;;13.30;46.00;;;;;;4914678;29;20960;-91
2021/04/18 09:22:30;;;;;;;12.70;10.83;;;13.50;45.40;;;;;;4917916;29;20416;-88
2021/04/18 09:25:17;;;;;;;14.27;10.17;;;13.90;44.30;;;;;;4916543;29;20432;-88
2021/04/18 09:27:54;;;;;;;13.40;10.13;;;14.70;43.90;;;;;;4973170;23;20478;-90
2021/04/18 09:30:29;;;;;;;11.50;9.90;;;14.10;42.70;;;;;;4956512;29;20430;-89
2021/04/18 09:32:57;;;;;;;10.70;9.57;;;14.10;43.10;;;;;;4968155;29;20422;-92
2021/04/18 09:35:25;;;;;;;11.80;10.30;;;15.90;44.30;;;;;;4948716;29;20552;-91
2021/04/18 09:37:56;;;;;;;11.20;10.20;;;14.40;41.60;;;;;;4948979;29;20505;-92
2021/04/18 09:40:25;;;;;;;12.77;11.57;;;15.10;41.60;;;;;;4948301;29;20766;-91
2021/04/18 09:42:54;;;;;;;10.90;9.77;;;15.20;41.50;;;;;;4950194;29;20428;-91
2021/04/18 09:45:31;;;;;;;12.47;11.23;;;15.80;42.00;;;;;;4948571;29;20430;-91
2021/04/18 09:48:19;;;;;;;12.43;11.40;;;13.70;39.30;;;;;;4946772;29;20466;-85
2021/04/18 09:50:59;;;;;;;13.17;10.43;;;15.10;41.30;;;;;;4948772;29;20432;-90
2021/04/18 09:53:26;;;;;;;12.10;9.53;;;14.80;42.40;;;;;;4948353;29;20469;-92
2021/04/18 09:55:58;;;;;;;11.97;9.80;;;15.10;44.40;;;;;;4927365;29;20494;-92
2021/04/18 09:58:29;;;;;;;13.10;9.60;;;14.30;42.80;;;;;;4950953;29;20411;-91
2021/04/18 10:00:57;;;;;;;10.63;9.73;;;13.80;42.10;;;;;;4944241;29;20546;-91
2021/04/18 10:03:53;;;;;;;11.47;10.13;;;15.30;43.70;;;;;;4945722;29;20515;-90
2021/04/18 10:06:23;;;;;;;37.20;18.50;;;13.80;43.40;;;;;;4949589;28;20443;-90
2021/04/18 10:09:02;;;;;;;11.43;9.77;;;14.00;43.70;;;;;;4957142;28;20454;-89
2021/04/18 10:12:07;;;;;;;13.43;9.90;;;13.70;43.80;;;;;;4955539;29;20434;-89
2021/04/18 10:15:09;;;;;;;9.97;8.50;;;13.90;44.00;;;;;;4993610;23;20494;-90
2021/04/18 10:20:28;;;;;;;12.13;10.20;;;15.00;42.90;;;;;;4925868;29;20458;-90
2021/04/18 10:23:08;;;;;;;11.40;10.37;;;15.70;42.40;;;;;;4936357;29;20519;-86
2021/04/18 10:25:34;;;;;;;11.33;9.83;;;17.40;41.80;;;;;;4935331;29;20502;-90
2021/04/18 10:28:00;;;;;;;11.03;9.93;;;16.50;40.10;;;;;;4921971;29;20415;-89
2021/04/18 10:30:27;;;;;;;13.23;11.23;;;18.20;40.70;;;;;;4939214;29;20458;-89
2021/04/18 10:33:14;;;;;;;12.37;11.07;;;17.10;39.00;;;;;;4953840;29;20467;-92
2021/04/18 10:35:40;;;;;;;11.13;10.13;;;16.60;36.80;;;;;;4957218;29;20465;-89
2021/04/18 10:38:05;;;;;;;10.27;9.47;;;19.80;36.90;;;;;;4938685;29;20407;-90
2021/04/18 10:40:31;;;;;;;11.87;10.77;;;20.60;37.40;;;;;;4938580;29;20678;-91
2021/04/18 10:42:57;;;;;;;10.80;9.67;;;18.80;35.10;;;;;;4948403;29;20172;-92
2021/04/18 10:45:23;;;;;;;29.77;11.73;;;19.50;37.00;;;;;;4925199;29;20187;-91
2021/04/18 10:47:48;;;;;;;11.13;10.13;;;19.10;35.60;;;;;;4944351;29;20218;-90
2021/04/18 10:50:14;;;;;;;12.43;11.13;;;19.50;35.80;;;;;;4945335;29;20171;-92
2021/04/18 10:52:40;;;;;;;11.57;9.57;;;19.10;34.80;;;;;;4944060;29;20178;-92
2021/04/18 10:55:08;;;;;;;11.10;9.63;;;20.00;35.70;;;;;;4931698;29;20475;-91
2021/04/18 10:57:34;;;;;;;12.23;9.90;;;18.90;34.90;;;;;;4933923;29;20427;-91
2021/04/18 11:00:01;;;;;;;10.60;9.60;;;19.60;36.40;;;;;;4936017;29;20443;-91
2021/04/18 11:02:27;;;;;;;11.80;10.80;;;18.90;34.40;;;;;;4949230;29;20451;-89
2021/04/18 11:04:53;;;;;;;15.53;9.93;;;19.00;35.20;;;;;;4948922;29;20423;-91
2021/04/18 11:07:19;;;;;;;11.87;10.77;;;19.70;34.00;;;;;;4933165;29;20175;-90
2021/04/18 11:09:44;;;;;;;11.70;10.80;;;19.90;34.40;;;;;;4932811;29;20223;-90
2021/04/18 11:12:18;;;;;;;12.07;10.20;;;19.50;33.50;;;;;;4942271;29;20262;-91
2021/04/18 11:14:45;;;;;;;12.10;10.90;;;19.10;33.00;;;;;;4945251;29;20203;-91
2021/04/18 11:17:11;;;;;;;11.43;9.70;;;20.50;34.90;;;;;;4944595;29;20478;-92
2021/04/18 11:19:40;;;;;;;12.30;10.20;;;19.70;34.20;;;;;;4943071;29;20491;-91
2021/04/18 11:22:20;;;;;;;10.57;9.60;;;21.50;33.90;;;;;;4951130;29;20447;-91
2021/04/18 11:45:20;;;;;;;11.43;10.43;;;18.80;32.50;;;;;;4951670;28;20481;-93
2021/04/18 11:47:49;;;;;;;12.50;11.17;;;18.30;34.50;;;;;;4952169;28;20431;-91
2021/04/18 11:50:16;;;;;;;12.97;11.37;;;18.30;37.00;;;;;;4936768;29;20189;-93
2021/04/18 11:52:41;;;;;;;12.60;11.03;;;17.10;36.60;;;;;;4953868;29;20502;-90
2021/04/18 11:55:12;;;;;;;16.53;10.80;;;18.80;39.00;;;;;;4951105;29;20427;-88
2021/04/18 11:57:38;;;;;;;13.03;11.83;;;17.40;36.30;;;;;;4948701;28;20188;-88
2021/04/18 12:00:06;;;;;;;14.50;10.83;;;18.40;36.50;;;;;;4940776;29;20439;-87
2021/04/18 12:02:32;;;;;;;12.47;11.23;;;17.00;36.00;;;;;;4936885;29;20419;-90
2021/04/18 12:04:58;;;;;;;13.13;11.70;;;16.70;36.10;;;;;;4936568;29;21033;-90
2021/04/18 12:07:24;;;;;;;18.20;14.80;;;16.20;40.60;;;;;;4936707;29;20435;-89
2021/04/18 12:09:49;;;;;;;82.80;46.00;;;17.90;44.40;;;;;;4941891;29;20578;-93
2021/04/18 12:12:16;;;;;;;12.73;11.67;;;17.80;47.60;;;;;;4941784;29;20258;-89
2021/04/18 12:14:41;;;;;;;13.80;12.50;;;15.90;45.00;;;;;;4939629;29;20592;-89
2021/04/18 12:17:07;;;;;;;13.60;11.20;;;16.80;47.30;;;;;;4941849;29;20430;-89
2021/04/18 12:19:33;;;;;;;13.40;11.20;;;15.90;46.50;;;;;;4940963;29;20414;-89
2021/04/18 12:21:58;;;;;;;15.70;12.47;;;16.10;45.00;;;;;;4941407;29;20207;-88
2021/04/18 12:24:24;;;;;;;18.17;12.30;;;17.30;44.90;;;;;;4943010;29;20167;-90
2021/04/18 12:26:49;;;;;;;12.30;10.40;;;17.20;41.10;;;;;;4940082;29;20207;-90
2021/04/18 12:29:15;;;;;;;11.83;10.63;;;17.70;38.50;;;;;;4940894;29;20172;-90
2021/04/18 12:31:41;;;;;;;13.03;10.47;;;17.40;38.20;;;;;;4940391;29;20186;-88
2021/04/18 12:34:10;;;;;;;11.73;10.60;;;19.50;38.80;;;;;;4941468;29;20427;-90
2021/04/18 12:36:37;;;;;;;13.33;11.17;;;19.40;37.50;;;;;;4942374;29;20583;-90
2021/04/18 12:39:07;;;;;;;11.50;9.27;;;19.50;38.00;;;;;;4940860;29;20430;-89
2021/04/18 12:41:33;;;;;;;12.77;11.77;;;17.90;35.40;;;;;;4941192;29;20412;-90
2021/04/18 12:43:59;;;;;;;13.30;11.20;;;19.80;36.90;;;;;;4941647;29;20574;-89
2021/04/18 12:46:25;;;;;;;11.77;10.53;;;18.40;36.00;;;;;;4940225;29;20561;-90
2021/04/18 12:48:51;;;;;;;14.37;11.77;;;18.30;34.50;;;;;;4942054;29;20176;-90
2021/04/18 12:51:17;;;;;;;12.87;11.70;;;20.60;36.60;;;;;;4942212;29;20437;-89
2021/04/18 12:53:42;;;;;;;17.40;12.57;;;20.00;37.60;;;;;;4941448;29;20432;-90
2021/04/18 12:56:08;;;;;;;14.20;12.80;;;17.80;35.40;;;;;;4923451;29;20194;-89
2021/04/18 12:58:34;;;;;;;14.83;12.03;;;18.70;35.70;;;;;;4252999;29;10000729;-90
2021/04/18 13:01:01;;;;;;;19.73;12.60;;;16.70;35.00;;;;;;4918449;29;20428;-90
2021/04/18 13:03:26;;;;;;;15.63;11.63;;;17.70;35.90;;;;;;4918247;29;20428;-90
2021/04/18 13:05:55;;;;;;;12.63;10.83;;;18.50;38.00;;;;;;4901821;29;20482;-90
2021/04/18 13:08:21;;;;;;;17.77;15.87;;;16.30;36.60;;;;;;4919944;29;20172;-89
2021/04/18 13:10:46;;;;;;;12.00;10.77;;;17.20;36.70;;;;;;4919176;29;20434;-91
2021/04/18 13:13:12;;;;;;;11.67;10.47;;;16.80;35.70;;;;;;4919698;29;20204;-90
2021/04/18 13:15:39;;;;;;;11.70;10.53;;;17.40;36.60;;;;;;4939018;29;20202;-89
2021/04/18 13:18:06;;;;;;;12.30;11.10;;;19.00;37.30;;;;;;4937667;29;20171;-91
2021/04/18 13:20:32;;;;;;;12.57;11.20;;;17.70;36.70;;;;;;4938616;29;20441;-89
2021/04/18 13:22:58;;;;;;;16.53;13.53;;;18.30;36.50;;;;;;4936496;29;20432;-91
2021/04/18 13:25:27;;;;;;;14.90;12.50;;;17.30;36.50;;;;;;4938866;29;20963;-89
2021/04/18 13:27:54;;;;;;;15.43;12.73;;;17.70;39.00;;;;;;4936206;29;20757;-89
2021/04/18 13:30:20;;;;;;;15.90;12.40;;;17.20;40.30;;;;;;4935007;29;20505;-91
2021/04/18 13:32:47;;;;;;;14.40;13.00;;;17.00;37.90;;;;;;4936648;29;20935;-90
2021/04/18 13:35:13;;;;;;;13.90;12.70;;;17.20;37.70;;;;;;4936132;29;20505;-89
2021/04/18 13:37:39;;;;;;;14.60;13.20;;;17.00;37.00;;;;;;4938388;29;20459;-89
2021/04/18 13:40:05;;;;;;;16.27;14.67;;;18.80;38.40;;;;;;4937935;29;20439;-88
2021/04/18 13:42:31;;;;;;;13.83;12.67;;;17.80;36.40;;;;;;4937030;29;20250;-90
2021/04/18 13:44:57;;;;;;;17.40;14.00;;;17.80;36.40;;;;;;4937758;29;20551;-89
2021/04/18 13:47:22;;;;;;;14.30;13.10;;;18.70;35.90;;;;;;4937966;29;20654;-88
2021/04/18 13:49:48;;;;;;;17.60;13.40;;;17.80;36.20;;;;;;4937368;29;20179;-91
2021/04/18 13:52:14;;;;;;;18.50;12.37;;;19.50;37.40;;;;;;4939669;29;20167;-88
2021/04/18 13:54:39;;;;;;;13.20;11.97;;;18.80;36.50;;;;;;4939620;29;20171;-90
2021/04/18 13:57:05;;;;;;;15.60;14.03;;;18.40;35.60;;;;;;4940474;29;20179;-89
2021/04/18 13:59:31;;;;;;;14.73;13.47;;;18.40;35.40;;;;;;4953530;29;20298;-87
2021/04/18 14:01:56;;;;;;;13.63;12.43;;;19.00;35.90;;;;;;4958400;29;20214;-89
2021/04/18 14:04:22;;;;;;;20.67;18.50;;;18.00;35.60;;;;;;4941344;29;20210;-89
2021/04/18 14:06:50;;;;;;;12.60;11.10;;;19.80;36.90;;;;;;4956715;29;20218;-91
2021/04/18 14:09:16;;;;;;;11.63;10.50;;;21.20;35.10;;;;;;4939118;29;20910;-92
2021/04/18 14:11:41;;;;;;;12.13;11.03;;;21.50;34.00;;;;;;4939315;29;20465;-91
2021/04/18 14:14:11;;;;;;;11.20;10.10;;;22.70;33.20;;;;;;4939542;29;20264;-90
2021/04/18 14:16:37;;;;;;;14.40;11.87;;;20.90;31.40;;;;;;4940597;29;20175;-89
2021/04/18 14:19:06;;;;;;;10.50;9.70;;;20.70;32.30;;;;;;4942509;29;20791;-90
2021/04/18 14:21:31;;;;;;;15.07;13.73;;;20.40;31.10;;;;;;4940322;29;20450;-89
2021/04/18 14:23:57;;;;;;;11.50;10.63;;;21.10;31.70;;;;;;4957017;29;20807;-90
2021/04/18 14:26:23;;;;;;;12.33;11.07;;;22.60;32.90;;;;;;4940314;29;20276;-91
2021/04/18 14:28:51;;;;;;;10.83;9.90;;;22.10;32.90;;;;;;4956637;29;20175;-89
2021/04/18 14:31:18;;;;;;;12.57;10.83;;;21.90;32.70;;;;;;4959056;28;20415;-90
2021/04/18 14:33:44;;;;;;;11.20;10.17;;;21.30;32.10;;;;;;4938331;29;20427;-90
2021/04/18 14:36:10;;;;;;;11.30;10.40;;;20.20;30.60;;;;;;4939895;29;20929;-89
2021/04/18 14:38:35;;;;;;;10.60;9.90;;;20.90;30.90;;;;;;4954423;29;20222;-91
2021/04/18 14:41:05;;;;;;;12.73;11.57;;;21.60;32.20;;;;;;4936467;29;20442;-91
2021/04/18 14:43:31;;;;;;;10.63;9.70;;;21.30;30.60;;;;;;4918409;29;20186;-90
2021/04/18 14:45:57;;;;;;;15.03;12.70;;;22.30;30.80;;;;;;4918510;29;20470;-89
2021/04/18 14:48:23;;;;;;;11.43;10.50;;;22.00;30.00;;;;;;4938129;29;20918;-89
2021/04/18 14:50:51;;;;;;;10.87;9.87;;;20.80;30.90;;;;;;4935494;29;20431;-89
2021/04/18 14:53:16;;;;;;;12.47;11.30;;;21.70;31.70;;;;;;4935003;29;20344;-88
2021/04/18 14:55:43;;;;;;;12.73;11.50;;;21.80;32.40;;;;;;4935767;29;20419;-88
2021/04/18 14:58:09;;;;;;;9.90;9.20;;;20.70;32.50;;;;;;4934835;29;20189;-88
2021/04/18 15:00:34;;;;;;;13.53;12.43;;;20.90;32.80;;;;;;4953923;29;20781;-88
2021/04/18 15:03:00;;;;;;;12.97;11.67;;;19.70;32.20;;;;;;4953203;29;20174;-87
2021/04/18 15:05:25;;;;;;;15.60;14.30;;;18.70;32.70;;;;;;4953827;29;20294;-88
2021/04/18 15:07:53;;;;;;;15.03;13.83;;;18.00;33.60;;;;;;4954213;29;20602;-87
2021/04/18 15:10:19;;;;;;;15.23;13.97;;;17.80;34.20;;;;;;4937903;29;20721;-90
2021/04/18 15:12:45;;;;;;;15.47;13.97;;;17.70;34.50;;;;;;4955120;29;20462;-89
2021/04/18 15:15:11;;;;;;;19.50;17.50;;;17.70;34.70;;;;;;4937540;29;20188;-89
2021/04/18 15:17:36;;;;;;;15.77;14.30;;;17.90;34.90;;;;;;4955006;29;20179;-89
2021/04/18 15:20:03;;;;;;;22.20;17.70;;;17.90;34.70;;;;;;4953747;29;20429;-89
2021/04/18 15:22:29;;;;;;;14.37;12.10;;;18.00;34.70;;;;;;4955685;29;20179;-90
2021/04/18 15:24:55;;;;;;;23.50;18.00;;;17.90;34.70;;;;;;4955025;29;21025;-89
2021/04/18 15:27:21;;;;;;;14.73;13.47;;;19.60;36.10;;;;;;4953693;29;20430;-89
2021/04/18 15:29:51;;;;;;;14.40;13.10;;;17.40;35.20;;;;;;4937152;29;20182;-89
2021/04/18 15:32:17;;;;;;;13.83;12.63;;;17.60;34.90;;;;;;4953061;29;20430;-90
2021/04/18 15:34:44;;;;;;;13.03;11.93;;;17.90;35.20;;;;;;4952531;29;20764;-89
2021/04/18 15:37:14;;;;;;;13.03;11.93;;;18.10;35.50;;;;;;4936969;29;20448;-89
2021/04/18 15:39:44;;;;;;;13.47;12.30;;;17.50;35.40;;;;;;4954449;29;20418;-87
2021/04/18 15:42:12;;;;;;;12.47;11.27;;;17.50;35.50;;;;;;4942330;29;20443;-89
2021/04/18 15:44:39;;;;;;;12.07;11.13;;;17.00;35.00;;;;;;4938835;29;20470;-90
2021/04/18 15:47:04;;;;;;;13.57;10.83;;;17.10;35.20;;;;;;4939522;29;20520;-91
2021/04/18 15:49:30;;;;;;;16.03;14.20;;;17.40;35.90;;;;;;4937591;29;20454;-90
2021/04/18 15:51:56;;;;;;;59.17;40.93;;;17.10;36.00;;;;;;4939301;29;20657;-88
2021/04/18 15:54:21;;;;;;;12.87;11.67;;;17.10;36.30;;;;;;4941889;29;20167;-88
2021/04/18 15:56:47;;;;;;;16.20;14.67;;;17.10;36.40;;;;;;4948206;29;20199;-90
2021/04/18 15:59:13;;;;;;;12.83;11.83;;;17.70;36.60;;;;;;4950398;29;20186;-89
2021/04/18 16:01:38;;;;;;;12.87;11.73;;;17.00;36.40;;;;;;4946325;29;20438;-89
2021/04/18 16:04:04;;;;;;;13.50;12.10;;;16.50;36.20;;;;;;4957088;29;20646;-88
2021/04/18 16:06:36;;;;;;;15.83;13.70;;;16.90;36.80;;;;;;4956552;29;20253;-89
2021/04/18 16:09:06;;;;;;;14.60;13.47;;;16.60;36.60;;;;;;4940185;29;20513;-90
2021/04/18 16:11:32;;;;;;;15.50;14.10;;;16.80;36.80;;;;;;4956429;29;20446;-88
2021/04/18 16:14:04;;;;;;;16.40;14.77;;;16.70;37.30;;;;;;4975133;28;20434;-92
2021/04/18 16:19:08;;;;;;;50.27;22.40;;;16.80;37.60;;;;;;5037506;23;20501;-90
2021/04/18 16:21:55;;;;;;;14.63;13.10;;;16.40;39.10;;;;;;5263021;23;20563;-92
2021/04/18 16:24:20;;;;;;;21.43;15.67;;;16.80;37.40;;;;;;4967071;23;20491;-91
2021/04/18 16:26:46;;;;;;;16.63;13.93;;;17.10;39.00;;;;;;4922400;29;20494;-87
2021/04/18 16:29:13;;;;;;;14.63;13.10;;;17.90;38.40;;;;;;4904224;29;20207;-91
2021/04/18 16:34:14;;;;;;;17.70;13.80;;;16.80;37.10;;;;;;5066136;23;20497;-90
2021/04/18 16:36:39;;;;;;;14.60;13.20;;;17.10;37.60;;;;;;4941001;29;20430;-87
2021/04/18 16:39:05;;;;;;;16.80;12.13;;;17.40;37.50;;;;;;4958810;29;20173;-90
2021/04/18 16:41:31;;;;;;;11.00;10.20;;;16.70;37.20;;;;;;4940386;29;20178;-89
2021/04/18 16:43:57;;;;;;;12.27;11.17;;;17.00;37.20;;;;;;4957065;29;20261;-89
2021/04/18 16:46:23;;;;;;;12.77;11.37;;;16.80;37.00;;;;;;4939104;29;20285;-89
2021/04/18 16:48:48;;;;;;;14.57;13.27;;;16.70;37.30;;;;;;4959077;29;20434;-87
2021/04/18 16:51:14;;;;;;;14.10;12.80;;;16.40;37.40;;;;;;4959614;29;20170;-88
2021/04/18 16:53:40;;;;;;;13.67;11.43;;;17.10;38.20;;;;;;4957564;29;20269;-89
2021/04/18 16:56:07;;;;;;;13.30;12.02;;;16.50;37.90;;;;;;4612408;28;10000449;-89
2021/04/18 16:58:34;;;;;;;12.60;11.10;;;16.50;38.00;;;;;;4938391;29;20946;-89
2021/04/18 17:01:00;;;;;;;11.70;10.47;;;16.70;38.10;;;;;;4956076;29;20446;-89
2021/04/18 17:03:26;;;;;;;11.13;10.20;;;16.40;37.50;;;;;;4956076;29;20457;-90
2021/04/18 17:05:51;;;;;;;11.87;10.60;;;16.40;37.60;;;;;;4955828;29;20458;-90
2021/04/18 17:08:17;;;;;;;18.37;10.63;;;16.40;37.70;;;;;;4938540;29;20880;-87
2021/04/18 17:10:42;;;;;;;11.67;10.57;;;16.40;37.90;;;;;;4938964;29;20182;-90
2021/04/18 17:13:08;;;;;;;14.30;11.60;;;16.40;37.90;;;;;;4955727;29;20218;-89
2021/04/18 17:15:36;;;;;;;11.33;10.10;;;16.30;37.90;;;;;;4938947;29;20577;-89
2021/04/18 17:18:02;;;;;;;13.30;11.10;;;16.30;38.30;;;;;;4939063;29;20265;-89
2021/04/18 17:20:28;;;;;;;13.10;11.83;;;16.40;38.10;;;;;;4940027;29;20501;-89
2021/04/18 17:22:55;;;;;;;11.80;10.80;;;16.30;38.10;;;;;;4954913;29;20521;-90
2021/04/18 17:25:21;;;;;;;12.40;11.20;;;16.80;38.60;;;;;;4955996;29;20214;-89
2021/04/18 17:27:49;;;;;;;12.13;10.83;;;16.20;38.60;;;;;;4939435;29;20502;-88
2021/04/18 17:30:17;;;;;;;14.20;12.80;;;15.80;38.20;;;;;;4938379;29;20291;-89
2021/04/18 17:32:42;;;;;;;11.03;10.03;;;16.20;39.00;;;;;;4936953;29;20466;-89
2021/04/18 17:35:09;;;;;;;10.90;10.00;;;16.10;38.90;;;;;;4954866;29;20422;-88
2021/04/18 17:37:34;;;;;;;10.73;9.93;;;16.10;39.20;;;;;;4954652;29;20665;-88
2021/04/18 17:40:01;;;;;;;11.30;9.90;;;16.00;39.90;;;;;;4953511;29;20423;-85
2021/04/18 17:42:26;;;;;;;12.67;10.30;;;15.50;39.80;;;;;;4954549;29;20238;-87
2021/04/18 17:44:52;;;;;;;11.57;10.37;;;15.80;39.90;;;;;;4954237;29;20446;-87
2021/04/18 17:47:18;;;;;;;15.80;13.07;;;15.70;40.10;;;;;;4937026;29;20201;-87
2021/04/18 17:49:44;;;;;;;10.83;9.90;;;15.70;40.30;;;;;;4953977;29;20183;-87
2021/04/18 17:52:09;;;;;;;12.13;10.97;;;15.70;40.50;;;;;;4954039;29;20426;-87
2021/04/18 17:54:35;;;;;;;9.90;9.10;;;15.60;41.80;;;;;;4936421;29;20175;-86
2021/04/18 17:57:00;;;;;;;11.00;10.07;;;15.60;43.50;;;;;;4953363;29;20203;-87
2021/04/18 17:59:26;;;;;;;10.40;9.40;;;15.50;42.60;;;;;;4936442;29;20547;-86
2021/04/18 18:01:53;;;;;;;10.80;9.97;;;15.50;41.90;;;;;;4936464;29;20174;-87
2021/04/18 18:04:19;;;;;;;9.93;9.33;;;15.40;42.30;;;;;;4953299;29;20179;-87
2021/04/18 18:06:45;;;;;;;12.10;10.80;;;15.40;44.20;;;;;;4936404;29;20478;-88
2021/04/18 18:09:11;;;;;;;9.53;8.63;;;15.50;44.60;;;;;;4936113;29;20432;-86
2021/04/18 18:11:36;;;;;;;10.60;9.50;;;15.30;45.30;;;;;;4953818;29;20179;-88
2021/04/18 18:14:03;;;;;;;10.27;8.80;;;15.40;45.50;;;;;;4936633;29;20626;-87
2021/04/18 18:16:29;;;;;;;10.30;9.60;;;15.30;46.10;;;;;;4935765;29;20205;-86
2021/04/18 18:18:55;;;;;;;12.03;9.40;;;15.10;46.70;;;;;;4936516;29;21067;-87
2021/04/18 18:21:21;;;;;;;9.30;8.40;;;15.00;47.30;;;;;;4937048;29;20422;-87
2021/04/18 18:23:46;;;;;;;9.70;8.90;;;14.90;47.50;;;;;;4936946;29;20513;-87
2021/04/18 18:26:12;;;;;;;9.83;8.93;;;14.80;47.00;;;;;;4936452;29;20242;-87
2021/04/18 18:28:37;;;;;;;11.47;9.83;;;14.70;47.50;;;;;;4953311;29;20226;-87
2021/04/18 18:31:03;;;;;;;10.60;9.50;;;14.50;48.30;;;;;;4953328;29;20183;-87
2021/04/18 18:33:29;;;;;;;10.37;9.60;;;14.40;49.10;;;;;;4935932;29;20789;-86
2021/04/18 18:35:55;;;;;;;11.37;9.50;;;14.70;49.20;;;;;;4953464;29;20422;-87
2021/04/18 18:38:20;;;;;;;10.30;9.50;;;13.80;48.40;;;;;;4953158;29;20178;-87
2021/04/18 18:40:48;;;;;;;14.77;10.20;;;14.50;48.10;;;;;;4953204;29;20638;-87
2021/04/18 18:43:14;;;;;;;11.23;9.80;;;14.50;48.70;;;;;;4936176;29;20281;-88
2021/04/18 18:45:40;;;;;;;12.27;10.97;;;14.40;49.10;;;;;;4935570;29;20561;-87
2021/04/18 18:48:06;;;;;;;15.70;11.27;;;14.40;49.10;;;;;;4936173;29;20171;-88